sensor_id;sensor_type;location;lat;lon;timestamp;pressure;altitude;pressure_sealevel;temperature;humidity
70072;BME280;57434;42.794;23.302;2023-01-08T00:00:05;96194.66;;;-1.78;73.60
70072;BME280;57434;42.794;23.302;2023-01-08T00:01:09;96063.38;;;-2.58;73.67
70072;BME280;57434;42.794;23.302;2023-01-08T00:02:11;96209.97;;;-1.70;74.14
70072;BME280;57434;42.794;23.302;2023-01-08T00:03:14;96056.81;;;-2.92;74.67
70072;BME280;57434;42.794;23.302;2023-01-08T00:04:16;96207.69;;;-1.93;75.03
70072;BME280;57434;42.794;23.302;2023-01-08T00:05:18;96235.13;;;-1.79;75.04
70072;BME280;57434;42.794;23.302;2023-01-08T00:06:20;96226.88;;;-1.72;75.09
70072;BME280;57434;42.794;23.302;2023-01-08T00:07:22;96102.59;;;-2.47;75.17
70072;BME280;57434;42.794;23.302;2023-01-08T00:08:24;96173.94;;;-2.08;75.10
70072;BME280;57434;42.794;23.302;2023-01-08T00:09:26;96188.06;;;-2.09;75.32
70072;BME280;57434;42.794;23.302;2023-01-08T00:10:28;96235.56;;;-1.84;75.46
70072;BME280;57434;42.794;23.302;2023-01-08T00:11:30;96206.13;;;-1.90;75.50
70072;BME280;57434;42.794;23.302;2023-01-08T00:12:32;96227.72;;;-1.89;75.33
70072;BME280;57434;42.794;23.302;2023-01-08T00:13:34;96068.53;;;-2.67;75.30
70072;BME280;57434;42.794;23.302;2023-01-08T00:14:35;96235.88;;;-1.60;75.22
70072;BME280;57434;42.794;23.302;2023-01-08T00:15:37;96168.81;;;-1.98;75.03
70072;BME280;57434;42.794;23.302;2023-01-08T00:16:39;96269.22;;;-1.51;74.93
70072;BME280;57434;42.794;23.302;2023-01-08T00:17:41;96085.75;;;-2.63;74.66
70072;BME280;57434;42.794;23.302;2023-01-08T00:18:44;96239.44;;;-1.71;75.47
70072;BME280;57434;42.794;23.302;2023-01-08T00:19:46;96241.81;;;-1.76;75.33
70072;BME280;57434;42.794;23.302;2023-01-08T00:20:48;96114.03;;;-2.77;75.68
70072;BME280;57434;42.794;23.302;2023-01-08T00:21:49;96234.34;;;-1.79;75.82
70072;BME280;57434;42.794;23.302;2023-01-08T00:22:51;96193.56;;;-2.06;75.95
70072;BME280;57434;42.794;23.302;2023-01-08T00:23:53;96178.31;;;-2.17;76.29
70072;BME280;57434;42.794;23.302;2023-01-08T00:24:55;96109.75;;;-3.13;76.50
70072;BME280;57434;42.794;23.302;2023-01-08T00:26:00;96183.81;;;-2.28;76.42
70072;BME280;57434;42.794;23.302;2023-01-08T00:27:02;96235.91;;;-1.75;75.76
70072;BME280;57434;42.794;23.302;2023-01-08T00:28:04;96241.84;;;-1.90;75.58
70072;BME280;57434;42.794;23.302;2023-01-08T00:29:06;96268.16;;;-1.82;74.78
70072;BME280;57434;42.794;23.302;2023-01-08T00:30:08;96233.25;;;-2.07;74.93
70072;BME280;57434;42.794;23.302;2023-01-08T00:31:11;96223.06;;;-2.17;75.08
70072;BME280;57434;42.794;23.302;2023-01-08T00:32:13;96207.38;;;-2.27;75.00
70072;BME280;57434;42.794;23.302;2023-01-08T00:33:15;96230.91;;;-2.19;75.08
70072;BME280;57434;42.794;23.302;2023-01-08T00:34:17;96084.28;;;-3.24;75.24
70072;BME280;57434;42.794;23.302;2023-01-08T00:35:18;96234.09;;;-2.49;75.78
70072;BME280;57434;42.794;23.302;2023-01-08T00:36:20;96152.06;;;-3.32;76.26
70072;BME280;57434;42.794;23.302;2023-01-08T00:37:22;96195.63;;;-2.81;76.43
70072;BME280;57434;42.794;23.302;2023-01-08T00:38:25;96228.59;;;-2.70;76.07
70072;BME280;57434;42.794;23.302;2023-01-08T00:39:27;96211.34;;;-2.74;75.93
70072;BME280;57434;42.794;23.302;2023-01-08T00:40:29;96085.03;;;-3.56;75.62
70072;BME280;57434;42.794;23.302;2023-01-08T00:41:30;96232.50;;;-2.82;75.67
70072;BME280;57434;42.794;23.302;2023-01-08T00:42:32;96215.59;;;-3.09;76.09
70072;BME280;57434;42.794;23.302;2023-01-08T00:43:34;96054.00;;;-4.02;76.17
70072;BME280;57434;42.794;23.302;2023-01-08T00:44:36;96168.94;;;-3.09;76.23
70072;BME280;57434;42.794;23.302;2023-01-08T00:45:38;96235.66;;;-2.76;76.07
70072;BME280;57434;42.794;23.302;2023-01-08T00:46:40;95977.19;;;-4.45;75.78
70072;BME280;57434;42.794;23.302;2023-01-08T00:47:42;95834.97;;;-5.39;75.63
70072;BME280;57434;42.794;23.302;2023-01-08T00:48:44;96240.38;;;-2.73;76.06
70072;BME280;57434;42.794;23.302;2023-01-08T00:49:45;96216.03;;;-2.75;75.67
70072;BME280;57434;42.794;23.302;2023-01-08T00:50:50;96074.06;;;-3.59;75.28
70072;BME280;57434;42.794;23.302;2023-01-08T00:51:52;96228.19;;;-2.54;75.19
70072;BME280;57434;42.794;23.302;2023-01-08T00:52:54;96188.56;;;-2.89;75.17
70072;BME280;57434;42.794;23.302;2023-01-08T00:53:56;96216.41;;;-2.83;75.03
70072;BME280;57434;42.794;23.302;2023-01-08T00:54:58;96238.00;;;-2.78;75.15
70072;BME280;57434;42.794;23.302;2023-01-08T00:56:02;96105.38;;;-3.71;75.58
70072;BME280;57434;42.794;23.302;2023-01-08T00:57:04;96237.22;;;-2.72;75.72
70072;BME280;57434;42.794;23.302;2023-01-08T00:58:06;96022.63;;;-4.26;75.02
70072;BME280;57434;42.794;23.302;2023-01-08T00:59:08;96244.28;;;-2.85;75.11
70072;BME280;57434;42.794;23.302;2023-01-08T01:00:14;96046.94;;;-4.11;74.95
70072;BME280;57434;42.794;23.302;2023-01-08T01:01:17;96209.63;;;-3.46;75.02
70072;BME280;57434;42.794;23.302;2023-01-08T01:02:18;96206.16;;;-3.32;75.29
70072;BME280;57434;42.794;23.302;2023-01-08T01:03:20;96244.22;;;-3.10;75.39
70072;BME280;57434;42.794;23.302;2023-01-08T01:04:25;96220.69;;;-3.28;75.41
70072;BME280;57434;42.794;23.302;2023-01-08T01:05:27;96245.78;;;-3.26;75.71
70072;BME280;57434;42.794;23.302;2023-01-08T01:06:29;96235.16;;;-3.31;75.94
70072;BME280;57434;42.794;23.302;2023-01-08T01:07:32;96182.94;;;-3.74;76.24
70072;BME280;57434;42.794;23.302;2023-01-08T01:08:34;96238.63;;;-3.45;76.70
70072;BME280;57434;42.794;23.302;2023-01-08T01:09:36;96237.50;;;-3.33;76.68
70072;BME280;57434;42.794;23.302;2023-01-08T01:10:38;96240.16;;;-3.62;76.42
70072;BME280;57434;42.794;23.302;2023-01-08T01:11:40;96081.59;;;-4.57;76.34
70072;BME280;57434;42.794;23.302;2023-01-08T01:12:42;96207.13;;;-3.90;76.48
70072;BME280;57434;42.794;23.302;2023-01-08T01:13:44;95955.44;;;-5.11;76.10
70072;BME280;57434;42.794;23.302;2023-01-08T01:14:46;96217.53;;;-3.27;75.88
70072;BME280;57434;42.794;23.302;2023-01-08T01:15:58;96240.69;;;-3.17;75.74
70072;BME280;57434;42.794;23.302;2023-01-08T01:17:00;96237.16;;;-3.25;75.65
70072;BME280;57434;42.794;23.302;2023-01-08T01:18:02;96235.59;;;-3.12;75.46
70072;BME280;57434;42.794;23.302;2023-01-08T01:19:03;96234.81;;;-3.19;75.55
70072;BME280;57434;42.794;23.302;2023-01-08T01:20:08;96251.66;;;-3.24;75.28
70072;BME280;57434;42.794;23.302;2023-01-08T01:21:16;96211.28;;;-3.27;75.31
70072;BME280;57434;42.794;23.302;2023-01-08T01:22:19;96201.47;;;-3.32;75.57
70072;BME280;57434;42.794;23.302;2023-01-08T01:23:21;96236.78;;;-3.13;75.22
70072;BME280;57434;42.794;23.302;2023-01-08T01:24:22;96246.56;;;-3.19;75.67
70072;BME280;57434;42.794;23.302;2023-01-08T01:25:24;96226.56;;;-3.26;75.83
70072;BME280;57434;42.794;23.302;2023-01-08T01:26:26;96222.66;;;-3.25;75.66
70072;BME280;57434;42.794;23.302;2023-01-08T01:27:28;96245.00;;;-3.13;75.94
70072;BME280;57434;42.794;23.302;2023-01-08T01:28:30;96206.56;;;-3.16;76.09
70072;BME280;57434;42.794;23.302;2023-01-08T01:29:32;96228.56;;;-3.02;75.72
70072;BME280;57434;42.794;23.302;2023-01-08T01:30:33;96241.13;;;-2.97;76.03
70072;BME280;57434;42.794;23.302;2023-01-08T01:31:36;96228.97;;;-3.00;75.74
70072;BME280;57434;42.794;23.302;2023-01-08T01:32:37;96242.69;;;-2.89;75.95
70072;BME280;57434;42.794;23.302;2023-01-08T01:33:40;96175.97;;;-3.18;75.37
70072;BME280;57434;42.794;23.302;2023-01-08T01:34:42;96182.25;;;-3.18;74.79
70072;BME280;57434;42.794;23.302;2023-01-08T01:35:44;96202.66;;;-3.15;74.77
70072;BME280;57434;42.794;23.302;2023-01-08T01:36:45;96197.56;;;-3.17;74.69
70072;BME280;57434;42.794;23.302;2023-01-08T01:37:47;96141.03;;;-3.60;74.72
70072;BME280;57434;42.794;23.302;2023-01-08T01:38:51;96201.50;;;-3.11;74.96
70072;BME280;57434;42.794;23.302;2023-01-08T01:39:53;96219.13;;;-3.08;75.02
70072;BME280;57434;42.794;23.302;2023-01-08T01:40:55;96194.78;;;-3.31;75.12
70072;BME280;57434;42.794;23.302;2023-01-08T01:41:57;96214.03;;;-3.06;75.00
70072;BME280;57434;42.794;23.302;2023-01-08T01:42:58;96149.72;;;-3.48;74.89
70072;BME280;57434;42.794;23.302;2023-01-08T01:44:40;96176.00;;;-3.25;74.63
70072;BME280;57434;42.794;23.302;2023-01-08T01:45:42;96202.69;;;-2.87;74.83
70072;BME280;57434;42.794;23.302;2023-01-08T01:46:44;96173.66;;;-3.02;74.70
70072;BME280;57434;42.794;23.302;2023-01-08T01:47:56;96216.03;;;-2.71;76.06
70072;BME280;57434;42.794;23.302;2023-01-08T01:49:03;95967.47;;;-4.28;76.25
70072;BME280;57434;42.794;23.302;2023-01-08T01:50:14;96132.09;;;-3.04;76.22
70072;BME280;57434;42.794;23.302;2023-01-08T01:51:19;96192.09;;;-2.71;75.08
70072;BME280;57434;42.794;23.302;2023-01-08T01:52:22;96218.00;;;-2.47;74.50
70072;BME280;57434;42.794;23.302;2023-01-08T01:53:33;96199.19;;;-2.66;74.28
70072;BME280;57434;42.794;23.302;2023-01-08T01:54:36;96226.22;;;-2.54;74.09
70072;BME280;57434;42.794;23.302;2023-01-08T01:55:40;96214.84;;;-2.52;74.06
70072;BME280;57434;42.794;23.302;2023-01-08T01:56:43;96207.78;;;-2.57;74.13
70072;BME280;57434;42.794;23.302;2023-01-08T01:57:54;96075.59;;;-3.80;73.88
70072;BME280;57434;42.794;23.302;2023-01-08T01:58:59;96205.06;;;-2.67;74.16
70072;BME280;57434;42.794;23.302;2023-01-08T02:00:03;96184.25;;;-2.86;74.39
70072;BME280;57434;42.794;23.302;2023-01-08T02:01:07;96205.44;;;-2.73;74.87
70072;BME280;57434;42.794;23.302;2023-01-08T02:02:09;96207.00;;;-2.79;75.27
70072;BME280;57434;42.794;23.302;2023-01-08T02:03:12;96165.00;;;-3.15;75.04
70072;BME280;57434;42.794;23.302;2023-01-08T02:04:15;96199.16;;;-3.01;75.22
70072;BME280;57434;42.794;23.302;2023-01-08T02:05:17;96200.31;;;-2.88;75.24
70072;BME280;57434;42.794;23.302;2023-01-08T02:07:52;96166.19;;;-3.16;74.47
70072;BME280;57434;42.794;23.302;2023-01-08T02:10:21;96201.91;;;-2.94;74.23
70072;BME280;57434;42.794;23.302;2023-01-08T02:11:32;96201.91;;;-3.01;73.72
70072;BME280;57434;42.794;23.302;2023-01-08T02:12:44;96120.28;;;-3.58;73.43
70072;BME280;57434;42.794;23.302;2023-01-08T02:14:05;95990.81;;;-4.63;73.67
70072;BME280;57434;42.794;23.302;2023-01-08T02:17:54;96196.81;;;-2.99;74.48
70072;BME280;57434;42.794;23.302;2023-01-08T02:19:03;96174.03;;;-3.32;74.11
70072;BME280;57434;42.794;23.302;2023-01-08T02:20:17;96005.41;;;-4.34;73.85
70072;BME280;57434;42.794;23.302;2023-01-08T02:22:43;96195.63;;;-2.95;75.18
70072;BME280;57434;42.794;23.302;2023-01-08T02:24:10;96196.03;;;-2.93;75.28
70072;BME280;57434;42.794;23.302;2023-01-08T02:26:37;96195.63;;;-2.91;75.29
70072;BME280;57434;42.794;23.302;2023-01-08T02:27:42;95880.03;;;-5.01;74.98
70072;BME280;57434;42.794;23.302;2023-01-08T02:28:53;96183.88;;;-2.99;75.45
70072;BME280;57434;42.794;23.302;2023-01-08T02:29:56;96176.78;;;-3.11;75.39
70072;BME280;57434;42.794;23.302;2023-01-08T02:30:58;96151.69;;;-3.16;75.52
70072;BME280;57434;42.794;23.302;2023-01-08T02:32:01;96196.81;;;-2.85;75.50
70072;BME280;57434;42.794;23.302;2023-01-08T02:33:03;96194.06;;;-2.85;75.85
70072;BME280;57434;42.794;23.302;2023-01-08T02:34:05;96162.28;;;-3.11;75.97
70072;BME280;57434;42.794;23.302;2023-01-08T02:35:08;95991.69;;;-4.27;75.79
70072;BME280;57434;42.794;23.302;2023-01-08T02:37:24;96188.94;;;-2.87;76.05
70072;BME280;57434;42.794;23.302;2023-01-08T02:38:26;96174.84;;;-2.96;75.90
70072;BME280;57434;42.794;23.302;2023-01-08T02:40:56;95998.41;;;-4.14;76.18
70072;BME280;57434;42.794;23.302;2023-01-08T02:43:44;96181.88;;;-2.91;76.12
70072;BME280;57434;42.794;23.302;2023-01-08T02:46:12;95985.88;;;-4.15;75.67
70072;BME280;57434;42.794;23.302;2023-01-08T02:47:21;96187.78;;;-2.82;75.25
70072;BME280;57434;42.794;23.302;2023-01-08T02:48:45;95998.03;;;-4.05;75.02
70072;BME280;57434;42.794;23.302;2023-01-08T02:49:54;96196.03;;;-2.75;75.18
70072;BME280;57434;42.794;23.302;2023-01-08T02:51:27;95992.53;;;-4.16;74.88
70072;BME280;57434;42.794;23.302;2023-01-08T02:52:32;96174.06;;;-2.93;74.99
70072;BME280;57434;42.794;23.302;2023-01-08T02:53:43;96186.59;;;-2.81;75.18
70072;BME280;57434;42.794;23.302;2023-01-08T02:54:46;96188.97;;;-2.80;75.08
70072;BME280;57434;42.794;23.302;2023-01-08T02:55:51;96192.09;;;-2.95;74.63
70072;BME280;57434;42.794;23.302;2023-01-08T02:57:06;96161.50;;;-3.15;75.40
70072;BME280;57434;42.794;23.302;2023-01-08T02:58:10;96144.19;;;-3.44;75.93
70072;BME280;57434;42.794;23.302;2023-01-08T02:59:14;96210.09;;;-3.23;75.97
70072;BME280;57434;42.794;23.302;2023-01-08T03:00:17;96179.91;;;-3.30;75.64
70072;BME280;57434;42.794;23.302;2023-01-08T03:01:21;96188.94;;;-3.22;75.68
70072;BME280;57434;42.794;23.302;2023-01-08T03:02:25;95870.09;;;-5.45;75.54
70072;BME280;57434;42.794;23.302;2023-01-08T03:03:31;96218.28;;;-3.48;75.86
70072;BME280;57434;42.794;23.302;2023-01-08T03:04:39;96188.84;;;-3.58;76.11
70072;BME280;57434;42.794;23.302;2023-01-08T03:05:48;96192.34;;;-3.64;75.84
70072;BME280;57434;42.794;23.302;2023-01-08T03:06:51;96189.19;;;-3.74;75.00
70072;BME280;57434;42.794;23.302;2023-01-08T03:07:53;96181.72;;;-3.73;74.53
70072;BME280;57434;42.794;23.302;2023-01-08T03:08:56;96196.13;;;-4.04;74.20
70072;BME280;57434;42.794;23.302;2023-01-08T03:09:59;96175.31;;;-4.16;74.45
70072;BME280;57434;42.794;23.302;2023-01-08T03:11:06;96152.50;;;-4.34;74.98
70072;BME280;57434;42.794;23.302;2023-01-08T03:12:17;96150.13;;;-4.39;75.01
70072;BME280;57434;42.794;23.302;2023-01-08T03:13:26;96141.16;;;-4.36;75.47
70072;BME280;57434;42.794;23.302;2023-01-08T03:14:40;96178.91;;;-3.98;75.03
70072;BME280;57434;42.794;23.302;2023-01-08T03:15:54;95982.44;;;-5.02;74.94
70072;BME280;57434;42.794;23.302;2023-01-08T03:18:17;96158.97;;;-3.91;75.50
70072;BME280;57434;42.794;23.302;2023-01-08T03:19:41;96177.81;;;-3.79;75.28
70072;BME280;57434;42.794;23.302;2023-01-08T03:20:45;96121.88;;;-4.58;75.58
70072;BME280;57434;42.794;23.302;2023-01-08T03:21:49;96185.53;;;-3.99;75.92
70072;BME280;57434;42.794;23.302;2023-01-08T03:22:54;96162.53;;;-3.80;75.73
70072;BME280;57434;42.794;23.302;2023-01-08T03:23:57;96188.78;;;-3.79;75.63
70072;BME280;57434;42.794;23.302;2023-01-08T03:25:01;96183.31;;;-3.76;75.50
70072;BME280;57434;42.794;23.302;2023-01-08T03:26:05;96191.94;;;-3.70;76.04
70072;BME280;57434;42.794;23.302;2023-01-08T03:27:09;96075.38;;;-4.47;76.42
70072;BME280;57434;42.794;23.302;2023-01-08T03:28:24;96002.84;;;-4.82;76.29
70072;BME280;57434;42.794;23.302;2023-01-08T03:29:27;96025.25;;;-4.58;76.51
70072;BME280;57434;42.794;23.302;2023-01-08T03:30:29;96143.78;;;-3.60;76.70
70072;BME280;57434;42.794;23.302;2023-01-08T03:31:32;96195.16;;;-3.40;76.43
70072;BME280;57434;42.794;23.302;2023-01-08T03:32:35;96129.63;;;-3.84;76.39
70072;BME280;57434;42.794;23.302;2023-01-08T03:33:41;96165.41;;;-3.30;76.51
70072;BME280;57434;42.794;23.302;2023-01-08T03:34:45;96204.63;;;-3.19;76.47
70072;BME280;57434;42.794;23.302;2023-01-08T03:35:50;96144.59;;;-3.42;76.78
70072;BME280;57434;42.794;23.302;2023-01-08T03:36:56;95956.41;;;-4.53;76.56
70072;BME280;57434;42.794;23.302;2023-01-08T03:38:19;96191.72;;;-2.97;76.89
70072;BME280;57434;42.794;23.302;2023-01-08T03:39:29;95992.50;;;-4.30;76.49
70072;BME280;57434;42.794;23.302;2023-01-08T03:40:42;96188.56;;;-3.10;76.88
70072;BME280;57434;42.794;23.302;2023-01-08T03:41:47;96128.13;;;-3.60;76.92
70072;BME280;57434;42.794;23.302;2023-01-08T03:42:49;96089.72;;;-3.74;76.60
70072;BME280;57434;42.794;23.302;2023-01-08T03:43:51;96125.75;;;-3.65;76.47
70072;BME280;57434;42.794;23.302;2023-01-08T03:44:53;96172.03;;;-3.46;75.05
70072;BME280;57434;42.794;23.302;2023-01-08T03:46:01;95979.03;;;-4.78;73.62
70072;BME280;57434;42.794;23.302;2023-01-08T03:47:05;96194.75;;;-3.49;73.34
70072;BME280;57434;42.794;23.302;2023-01-08T03:48:09;96228.41;;;-3.59;72.58
70072;BME280;57434;42.794;23.302;2023-01-08T03:49:11;96196.56;;;-3.88;72.15
70072;BME280;57434;42.794;23.302;2023-01-08T03:50:17;96210.22;;;-3.95;72.08
70072;BME280;57434;42.794;23.302;2023-01-08T03:51:21;96187.97;;;-3.83;71.89
70072;BME280;57434;42.794;23.302;2023-01-08T03:52:25;96193.81;;;-3.88;72.41
70072;BME280;57434;42.794;23.302;2023-01-08T03:53:27;96192.59;;;-3.98;72.81
70072;BME280;57434;42.794;23.302;2023-01-08T03:54:30;96150.81;;;-4.60;72.82
70072;BME280;57434;42.794;23.302;2023-01-08T03:55:32;96182.03;;;-3.99;73.06
70072;BME280;57434;42.794;23.302;2023-01-08T03:56:34;96118.03;;;-4.43;73.13
70072;BME280;57434;42.794;23.302;2023-01-08T03:57:36;96190.25;;;-3.96;73.35
70072;BME280;57434;42.794;23.302;2023-01-08T03:58:38;96122.75;;;-4.39;73.52
70072;BME280;57434;42.794;23.302;2023-01-08T03:59:39;96067.47;;;-4.66;73.25
70072;BME280;57434;42.794;23.302;2023-01-08T04:00:41;96180.34;;;-4.25;73.17
70072;BME280;57434;42.794;23.302;2023-01-08T04:01:43;96173.44;;;-4.01;73.12
70072;BME280;57434;42.794;23.302;2023-01-08T04:02:45;96158.88;;;-4.13;72.93
70072;BME280;57434;42.794;23.302;2023-01-08T04:03:47;96198.09;;;-4.01;73.08
70072;BME280;57434;42.794;23.302;2023-01-08T04:04:48;96182.28;;;-4.26;73.21
70072;BME280;57434;42.794;23.302;2023-01-08T04:05:50;96056.25;;;-5.13;73.41
70072;BME280;57434;42.794;23.302;2023-01-08T04:06:52;96133.53;;;-4.68;73.83
70072;BME280;57434;42.794;23.302;2023-01-08T04:07:55;96128.84;;;-5.22;74.53
70072;BME280;57434;42.794;23.302;2023-01-08T04:08:56;96155.81;;;-4.69;74.68
70072;BME280;57434;42.794;23.302;2023-01-08T04:09:58;96125.84;;;-5.06;74.17
70072;BME280;57434;42.794;23.302;2023-01-08T04:11:00;96175.44;;;-4.60;74.53
70072;BME280;57434;42.794;23.302;2023-01-08T04:12:02;96119.69;;;-4.93;74.38
70072;BME280;57434;42.794;23.302;2023-01-08T04:13:04;96207.09;;;-4.63;74.77
70072;BME280;57434;42.794;23.302;2023-01-08T04:14:06;96194.44;;;-4.82;75.18
70072;BME280;57434;42.794;23.302;2023-01-08T04:15:08;96177.56;;;-4.91;75.80
70072;BME280;57434;42.794;23.302;2023-01-08T04:16:10;96189.34;;;-4.87;75.84
70072;BME280;57434;42.794;23.302;2023-01-08T04:17:12;96146.66;;;-4.95;75.47
70072;BME280;57434;42.794;23.302;2023-01-08T04:18:15;96133.38;;;-4.93;75.39
70072;BME280;57434;42.794;23.302;2023-01-08T04:19:17;96137.38;;;-4.80;75.18
70072;BME280;57434;42.794;23.302;2023-01-08T04:20:18;96207.19;;;-4.49;74.99
70072;BME280;57434;42.794;23.302;2023-01-08T04:21:20;96190.88;;;-4.27;75.14
70072;BME280;57434;42.794;23.302;2023-01-08T04:22:22;96183.38;;;-4.41;75.16
70072;BME280;57434;42.794;23.302;2023-01-08T04:23:24;96182.28;;;-4.29;74.91
70072;BME280;57434;42.794;23.302;2023-01-08T04:24:26;96096.31;;;-4.80;74.75
70072;BME280;57434;42.794;23.302;2023-01-08T04:25:28;96176.47;;;-4.17;75.06
70072;BME280;57434;42.794;23.302;2023-01-08T04:26:30;96002.31;;;-5.16;74.57
70072;BME280;57434;42.794;23.302;2023-01-08T04:27:32;96061.19;;;-4.70;74.35
70072;BME280;57434;42.794;23.302;2023-01-08T04:28:34;95948.97;;;-5.47;74.07
70072;BME280;57434;42.794;23.302;2023-01-08T04:29:36;96195.81;;;-3.85;74.52
70072;BME280;57434;42.794;23.302;2023-01-08T04:30:38;96203.28;;;-3.79;74.73
70072;BME280;57434;42.794;23.302;2023-01-08T04:31:40;96198.16;;;-3.84;74.65
70072;BME280;57434;42.794;23.302;2023-01-08T04:32:42;96189.06;;;-3.98;74.67
70072;BME280;57434;42.794;23.302;2023-01-08T04:33:43;96196.13;;;-4.01;74.75
70072;BME280;57434;42.794;23.302;2023-01-08T04:34:45;96193.03;;;-3.92;74.87
70072;BME280;57434;42.794;23.302;2023-01-08T04:35:47;96184.00;;;-3.93;75.07
70072;BME280;57434;42.794;23.302;2023-01-08T04:36:49;96073.72;;;-4.66;74.89
70072;BME280;57434;42.794;23.302;2023-01-08T04:37:51;96191.50;;;-3.86;75.09
70072;BME280;57434;42.794;23.302;2023-01-08T04:38:52;96191.09;;;-3.88;74.92
70072;BME280;57434;42.794;23.302;2023-01-08T04:39:54;96193.03;;;-3.92;75.18
70072;BME280;57434;42.794;23.302;2023-01-08T04:40:57;96156.88;;;-4.19;75.08
70072;BME280;57434;42.794;23.302;2023-01-08T04:41:59;96194.53;;;-4.05;75.32
70072;BME280;57434;42.794;23.302;2023-01-08T04:43:00;96165.53;;;-4.14;75.05
70072;BME280;57434;42.794;23.302;2023-01-08T04:44:02;96162.75;;;-4.21;75.08
70072;BME280;57434;42.794;23.302;2023-01-08T04:45:06;96238.00;;;-4.04;74.79
70072;BME280;57434;42.794;23.302;2023-01-08T04:46:08;96154.13;;;-4.23;74.68
70072;BME280;57434;42.794;23.302;2023-01-08T04:47:10;96191.81;;;-3.98;74.42
70072;BME280;57434;42.794;23.302;2023-01-08T04:48:11;96194.16;;;-3.97;74.34
70072;BME280;57434;42.794;23.302;2023-01-08T04:49:13;96201.63;;;-3.94;74.29
70072;BME280;57434;42.794;23.302;2023-01-08T04:50:15;96195.34;;;-3.98;74.11
70072;BME280;57434;42.794;23.302;2023-01-08T04:51:17;96187.94;;;-3.94;74.07
70072;BME280;57434;42.794;23.302;2023-01-08T04:52:18;96150.97;;;-4.32;74.09
70072;BME280;57434;42.794;23.302;2023-01-08T04:53:20;96199.25;;;-3.99;74.23
70072;BME280;57434;42.794;23.302;2023-01-08T04:54:22;96147.06;;;-4.31;74.40
70072;BME280;57434;42.794;23.302;2023-01-08T04:55:24;96199.63;;;-4.00;74.23
70072;BME280;57434;42.794;23.302;2023-01-08T04:56:25;96216.03;;;-4.11;74.53
70072;BME280;57434;42.794;23.302;2023-01-08T04:57:27;96154.78;;;-4.47;74.55
70072;BME280;57434;42.794;23.302;2023-01-08T04:58:29;96201.16;;;-4.10;74.88
70072;BME280;57434;42.794;23.302;2023-01-08T04:59:31;96196.84;;;-4.11;75.13
70072;BME280;57434;42.794;23.302;2023-01-08T05:00:33;96177.25;;;-4.17;75.62
70072;BME280;57434;42.794;23.302;2023-01-08T05:01:35;96154.53;;;-4.21;75.80
70072;BME280;57434;42.794;23.302;2023-01-08T05:02:36;96207.50;;;-3.95;75.90
70072;BME280;57434;42.794;23.302;2023-01-08T05:03:39;96162.31;;;-4.26;75.48
70072;BME280;57434;42.794;23.302;2023-01-08T05:04:41;96209.41;;;-4.07;75.60
70072;BME280;57434;42.794;23.302;2023-01-08T05:05:42;96205.09;;;-4.08;75.58
70072;BME280;57434;42.794;23.302;2023-01-08T05:06:44;96201.94;;;-4.13;75.41
70072;BME280;57434;42.794;23.302;2023-01-08T05:07:46;96118.63;;;-4.74;75.70
70072;BME280;57434;42.794;23.302;2023-01-08T05:08:48;95967.88;;;-5.79;76.02
70072;BME280;57434;42.794;23.302;2023-01-08T05:09:50;96171.22;;;-4.47;75.91
70072;BME280;57434;42.794;23.302;2023-01-08T05:10:52;96202.28;;;-4.22;75.53
70072;BME280;57434;42.794;23.302;2023-01-08T05:11:54;96198.38;;;-4.21;75.32
70072;BME280;57434;42.794;23.302;2023-01-08T05:12:59;96015.03;;;-5.41;75.84
70072;BME280;57434;42.794;23.302;2023-01-08T05:14:01;96184.06;;;-4.55;76.83
70072;BME280;57434;42.794;23.302;2023-01-08T05:15:03;96183.94;;;-4.72;77.37
70072;BME280;57434;42.794;23.302;2023-01-08T05:16:06;96109.63;;;-5.29;77.87
70072;BME280;57434;42.794;23.302;2023-01-08T05:17:07;96139.78;;;-5.22;78.30
70072;BME280;57434;42.794;23.302;2023-01-08T05:18:09;96159.91;;;-4.97;78.43
70072;BME280;57434;42.794;23.302;2023-01-08T05:19:11;96158.09;;;-4.79;78.64
70072;BME280;57434;42.794;23.302;2023-01-08T05:20:13;96155.78;;;-4.73;78.37
70072;BME280;57434;42.794;23.302;2023-01-08T05:21:15;96205.97;;;-4.55;78.53
70072;BME280;57434;42.794;23.302;2023-01-08T05:22:17;96188.38;;;-4.57;78.32
70072;BME280;57434;42.794;23.302;2023-01-08T05:23:19;96210.78;;;-4.37;77.71
70072;BME280;57434;42.794;23.302;2023-01-08T05:24:21;96210.81;;;-4.34;77.98
70072;BME280;57434;42.794;23.302;2023-01-08T05:25:23;96244.84;;;-4.35;77.79
70072;BME280;57434;42.794;23.302;2023-01-08T05:26:24;96206.72;;;-4.61;77.41
70072;BME280;57434;42.794;23.302;2023-01-08T05:27:27;96204.00;;;-4.61;77.06
70072;BME280;57434;42.794;23.302;2023-01-08T05:28:29;96211.22;;;-4.87;77.08
70072;BME280;57434;42.794;23.302;2023-01-08T05:29:31;96079.28;;;-5.61;76.80
70072;BME280;57434;42.794;23.302;2023-01-08T05:30:33;96186.06;;;-5.03;77.29
70072;BME280;57434;42.794;23.302;2023-01-08T05:31:36;96173.94;;;-5.46;77.65
70072;BME280;57434;42.794;23.302;2023-01-08T05:32:38;96149.69;;;-5.51;78.72
70072;BME280;57434;42.794;23.302;2023-01-08T05:33:40;95974.16;;;-6.59;78.43
70072;BME280;57434;42.794;23.302;2023-01-08T05:34:42;96130.25;;;-5.43;78.65
70072;BME280;57434;42.794;23.302;2023-01-08T05:35:44;96206.06;;;-4.95;78.34
70072;BME280;57434;42.794;23.302;2023-01-08T05:36:46;96193.81;;;-5.09;77.84
70072;BME280;57434;42.794;23.302;2023-01-08T05:37:48;96204.38;;;-5.07;77.88
70072;BME280;57434;42.794;23.302;2023-01-08T05:38:50;96213.19;;;-4.87;77.23
70072;BME280;57434;42.794;23.302;2023-01-08T05:39:51;96195.00;;;-5.06;77.19
70072;BME280;57434;42.794;23.302;2023-01-08T05:40:53;96004.91;;;-6.29;77.81
70072;BME280;57434;42.794;23.302;2023-01-08T05:41:55;96094.91;;;-5.62;78.02
70072;BME280;57434;42.794;23.302;2023-01-08T05:43:00;96206.34;;;-5.11;77.63
70072;BME280;57434;42.794;23.302;2023-01-08T05:44:02;96111.72;;;-5.60;77.87
70072;BME280;57434;42.794;23.302;2023-01-08T05:45:05;96167.13;;;-5.22;78.08
70072;BME280;57434;42.794;23.302;2023-01-08T05:46:08;96209.69;;;-4.84;77.95
70072;BME280;57434;42.794;23.302;2023-01-08T05:47:09;96193.94;;;-4.94;77.79
70072;BME280;57434;42.794;23.302;2023-01-08T05:48:11;96160.16;;;-5.16;77.38